Weather reports worldwide

Advertisment
Cabo Villano, Spain (8006): temperature & dewpoint: 20.09.2018 05:00:00 - 26.09.2018 05:00:00 (CEST)Cabo Villano, Spain (8006): wind speed & gusts: 20.09.2018 05:00:00 - 26.09.2018 05:00:00 (CEST)Cabo Villano, Spain (8006): wind direction: 20.09.2018 05:00:00 - 26.09.2018 05:00:00 (CEST)Cabo Villano, Spain (8006): precipitation: 20.09.2018 05:00:00 - 26.09.2018 05:00:00 (CEST)
Date & Time tt [°C] td [°C] ff [km/h] ff [kn] fx [km/h] fx [kn] dd rr [mm]
26.09.2018 05:00:00 15,0 10,4 16 8 27 15 NE 0,0
26.09.2018 04:00:00 14,8 9,8 19 10 41 22 NE 0,0
26.09.2018 03:00:00 14,8 9,8 23 12 36 19 NE 0,0
26.09.2018 02:00:00 15,2 10,2 25 13 44 24 NE -
26.09.2018 01:00:00 15,2 10,2 28 15 41 22 NE 0,0
26.09.2018 00:00:00 15,2 10,2 26 14 43 23 NE 0,0
25.09.2018 23:00:00 15,7 10,3 25 13 38 20 NE 0,0
25.09.2018 22:00:00 16,3 10,4 26 14 48 26 NE 0,0
25.09.2018 21:00:00 16,4 10,9 30 16 43 23 NE 0,0
25.09.2018 20:00:00 - - - - - - - -
25.09.2018 19:00:00 16,9 11,4 39 21 53 29 NE 0,0
25.09.2018 18:00:00 17,3 11,3 42 23 59 32 NE 0,0
25.09.2018 17:00:00 17,1 11,2 49 26 58 31 NE 0,0
25.09.2018 16:00:00 17,0 10,8 49 26 58 31 NE 0,0
25.09.2018 15:00:00 17,2 11,0 45 24 52 28 NE 0,0
25.09.2018 14:00:00 17,7 10,8 41 22 49 26 NE -
25.09.2018 13:00:00 17,8 9,7 37 20 53 29 NE 0,0
25.09.2018 12:00:00 17,1 4,1 34 18 52 28 NE 0,0
25.09.2018 11:00:00 16,3 4,1 37 20 51 27 NE 0,0
25.09.2018 10:00:00 15,4 4,2 30 16 50 27 NE 0,0
25.09.2018 09:00:00 14,8 4,5 30 16 57 31 NE 0,0
25.09.2018 08:00:00 14,4 5,0 35 19 56 31 NE -
25.09.2018 07:00:00 14,3 5,1 35 19 59 32 NE 0,0
25.09.2018 06:00:00 14,2 5,0 34 19 58 32 NE 0,0
25.09.2018 05:00:00 14,2 5,3 39 21 63 34 NE 0,0
25.09.2018 04:00:00 14,3 5,7 39 21 61 33 NE 0,0
25.09.2018 03:00:00 14,3 5,9 41 22 59 32 NE 0,0
25.09.2018 02:00:00 14,4 6,3 39 21 61 33 NE -
25.09.2018 01:00:00 14,6 6,4 38 20 74 40 NE 0,0
25.09.2018 00:00:00 14,8 7,4 42 23 69 37 NE 0,0
24.09.2018 23:00:00 15,0 8,0 44 24 74 40 NE 0,0
24.09.2018 22:00:00 15,1 8,6 52 28 84 45 NE 0,0
24.09.2018 21:00:00 14,9 8,6 65 35 87 47 NE 0,0
24.09.2018 20:00:00 15,1 8,6 69 37 85 46 NE -
24.09.2018 19:00:00 15,6 9,1 68 37 86 47 NE 0,0
24.09.2018 18:00:00 15,9 9,3 65 35 84 45 NE 0,0
24.09.2018 17:00:00 16,3 9,7 63 34 84 46 NE 0,0
24.09.2018 16:00:00 16,4 9,8 67 36 85 46 NE 0,0
24.09.2018 15:00:00 16,8 10,4 61 33 73 39 NE 0,0
24.09.2018 14:00:00 16,9 10,7 56 31 74 40 NE -
24.09.2018 13:00:00 16,5 10,8 56 30 74 40 NE 0,0
24.09.2018 12:00:00 16,5 11,0 52 28 71 38 NE 0,0
24.09.2018 11:00:00 16,1 11,1 51 28 72 39 NE 0,0
24.09.2018 10:00:00 16,1 11,9 50 27 78 42 NE 0,0
24.09.2018 09:00:00 15,5 12,3 48 26 75 41 NE 0,1
24.09.2018 08:00:00 15,6 12,2 48 26 78 42 NE -
24.09.2018 07:00:00 15,8 12,4 51 28 74 40 NE 0,0
24.09.2018 06:00:00 15,8 12,4 52 28 76 41 NE 0,0
24.09.2018 05:00:00 16,0 12,6 49 26 79 43 NE 0,0
24.09.2018 04:00:00 16,1 12,8 51 28 72 39 NE 0,0
24.09.2018 03:00:00 16,4 13,7 50 27 69 37 NE 0,0
24.09.2018 02:00:00 17,0 14,3 35 19 54 29 NE -
24.09.2018 01:00:00 17,1 14,6 32 18 56 30 NE 0,0
24.09.2018 00:00:00 16,9 14,7 34 18 54 29 NE 0,0
23.09.2018 23:00:00 16,8 14,6 37 20 52 28 NE 0,0
23.09.2018 22:00:00 16,8 14,6 38 20 57 31 NE 0,0
23.09.2018 21:00:00 16,9 14,5 37 20 54 29 NE 0,0
23.09.2018 20:00:00 17,6 15,2 24 13 30 16 NNE -
23.09.2018 19:00:00 18,7 16,1 19 10 22 12 NE 0,0
23.09.2018 18:00:00 18,9 16,0 19 10 21 12 NNE 0,0
23.09.2018 17:00:00 20,0 16,2 18 10 20 11 NNE 0,0
23.09.2018 16:00:00 20,4 17,0 16 9 19 10 NNE 0,0
23.09.2018 15:00:00 20,7 17,5 9 5 11 6 NE 0,0
23.09.2018 14:00:00 20,2 16,8 7 4 10 5 NNE -
23.09.2018 13:00:00 19,9 16,5 5 3 8 4 NNE 0,0
23.09.2018 12:00:00 20,6 17,6 4 2 6 3 NE 0,0
23.09.2018 11:00:00 19,8 17,0 1 1 6 4 N 0,0
23.09.2018 10:00:00 19,0 16,2 5 3 9 5 ESE 0,0
23.09.2018 09:00:00 18,4 15,6 3 1 9 5 NNE 0,0
23.09.2018 08:00:00 18,3 15,6 5 3 9 5 E -
23.09.2018 07:00:00 18,2 15,5 2 1 10 5 NE 0,0
23.09.2018 06:00:00 18,4 15,8 7 4 9 5 ENE 0,0
23.09.2018 05:00:00 18,4 15,8 5 3 10 5 NNE 0,0
23.09.2018 04:00:00 18,6 15,8 5 3 9 5 NE 0,0
23.09.2018 03:00:00 18,6 15,8 6 4 10 5 ENE 0,0
23.09.2018 02:00:00 18,6 15,8 6 3 9 5 ENE -
23.09.2018 01:00:00 18,3 15,4 4 2 9 5 NNE 0,0
23.09.2018 00:00:00 18,5 15,0 5 3 10 5 NNE 0,0
22.09.2018 23:00:00 18,3 14,0 3 1 8 4 E 0,0
22.09.2018 22:00:00 18,8 14,1 4 2 6 3 S 0,0
22.09.2018 21:00:00 18,9 13,1 4 2 9 5 SW 0,0
22.09.2018 20:00:00 20,4 13,4 6 4 11 6 SSW -
22.09.2018 19:00:00 21,4 14,1 8 5 13 7 SSW 0,0
22.09.2018 18:00:00 21,3 14,2 10 5 15 8 SW 0,0
22.09.2018 17:00:00 21,7 15,5 11 6 16 9 SW 0,0
22.09.2018 16:00:00 20,8 15,6 11 6 17 9 SW 0,0
22.09.2018 15:00:00 20,6 16,0 14 8 17 9 SW 0,0
22.09.2018 14:00:00 20,9 16,5 11 6 15 8 SSW -
22.09.2018 13:00:00 20,9 17,5 11 6 16 9 SSW 0,0
22.09.2018 12:00:00 19,8 17,2 7 4 10 5 SSW 0,0
22.09.2018 11:00:00 18,9 16,5 8 4 13 7 S 0,0
22.09.2018 10:00:00 17,4 15,0 10 5 15 8 S 0,0
22.09.2018 09:00:00 16,6 14,3 12 6 14 8 S 0,1
22.09.2018 08:00:00 16,2 13,9 10 5 14 8 S -
22.09.2018 07:00:00 16,5 14,2 11 6 15 8 S 0,0
22.09.2018 06:00:00 16,2 13,9 10 5 14 7 SSW 0,0
22.09.2018 05:00:00 16,5 14,2 7 4 15 8 S 0,0
22.09.2018 04:00:00 17,0 14,6 13 7 18 10 SE 0,0
22.09.2018 03:00:00 17,4 15,0 9 5 11 6 SSW 0,0
22.09.2018 02:00:00 17,7 15,3 8 5 14 7 SSW -
22.09.2018 01:00:00 17,9 15,5 8 5 13 7 S 0,0
22.09.2018 00:00:00 18,0 15,6 7 4 11 6 S 0,0
21.09.2018 23:00:00 17,9 15,5 3 1 6 3 SSW 0,0
21.09.2018 22:00:00 17,6 15,2 0 0 3 2 WSW 0,0
21.09.2018 21:00:00 17,7 15,3 0 0 3 2 SW 0,1
21.09.2018 20:00:00 17,5 15,1 1 1 7 4 NE -
21.09.2018 19:00:00 17,9 15,5 3 2 13 7 ENE 0,0
21.09.2018 18:00:00 17,1 14,7 7 4 11 6 NNE 0,0
21.09.2018 17:00:00 17,2 14,8 5 3 17 9 NE 0,1
21.09.2018 16:00:00 16,7 14,3 7 4 15 8 N 0,0
21.09.2018 15:00:00 18,7 16,3 9 5 21 11 E 0,1
21.09.2018 14:00:00 16,6 14,3 14 8 21 11 NNE -
21.09.2018 13:00:00 16,5 14,2 18 10 22 12 NNE 0,0
21.09.2018 12:00:00 16,2 13,9 8 4 17 9 NE 0,3
21.09.2018 11:00:00 16,1 13,8 14 8 19 10 NNE 0,3
21.09.2018 10:00:00 16,4 14,1 3 1 26 14 N 1,0
21.09.2018 09:00:00 17,7 15,3 22 12 30 16 SW 0,9
21.09.2018 08:00:00 18,0 15,4 19 10 29 16 SSW -
21.09.2018 07:00:00 17,9 15,3 21 12 34 18 SSW 0,2
21.09.2018 06:00:00 18,0 15,3 26 14 33 18 SSW 0,0
21.09.2018 05:00:00 17,9 15,2 26 14 33 18 S 0,0
21.09.2018 04:00:00 17,9 15,2 24 13 35 19 S 0,0
21.09.2018 03:00:00 17,9 15,2 24 13 34 19 SSW 0,0
21.09.2018 02:00:00 17,6 14,9 24 13 33 18 SSW -
21.09.2018 01:00:00 17,9 15,2 27 15 36 20 SSW 0,0
21.09.2018 00:00:00 18,0 15,3 25 14 35 19 SSW 0,0
20.09.2018 23:00:00 18,1 15,2 26 14 36 19 SSW 0,0
20.09.2018 22:00:00 18,0 14,9 27 15 42 23 SSW 0,0
20.09.2018 21:00:00 18,1 14,4 28 15 39 21 SSW 0,0
20.09.2018 20:00:00 19,3 14,3 26 14 36 20 S -
20.09.2018 19:00:00 19,3 13,5 26 14 36 19 SSW 0,0
20.09.2018 18:00:00 20,3 13,5 27 15 39 21 SSW 0,0
20.09.2018 17:00:00 20,9 14,1 32 17 43 23 SSW 0,0
20.09.2018 16:00:00 21,0 12,9 31 17 41 22 SSW 0,0
20.09.2018 15:00:00 21,3 13,5 29 16 40 22 SSW 0,0
20.09.2018 14:00:00 20,8 13,3 28 15 36 19 SW -
20.09.2018 13:00:00 21,2 15,3 22 12 29 16 SSW 0,0
20.09.2018 12:00:00 18,4 15,6 20 11 26 14 SSW 0,0
20.09.2018 11:00:00 17,4 15,0 18 10 27 14 S 0,0
20.09.2018 10:00:00 16,8 14,4 16 9 19 11 S 0,0
20.09.2018 09:00:00 15,2 12,9 17 9 22 12 SSE 0,1
20.09.2018 08:00:00 15,3 13,0 16 9 21 11 S -
20.09.2018 07:00:00 15,2 12,9 17 9 21 11 S 0,0
20.09.2018 06:00:00 14,8 12,5 13 7 16 9 S 0,0
20.09.2018 05:00:00 14,1 11,8 13 7 15 8 S 0,0

tt = temperature
td = dewpoint
ff = wind speed
fx = gusts
dd = wind direction
rr = precipitation

Next stations